sensor_id;sensor_type;location;lat;lon;timestamp;P1;durP1;ratioP1;P2;durP2;ratioP2
16015;SDS011;8112;53.592;10.184;2022-12-07T00:02:22;11.67;;;9.27;;
16015;SDS011;8112;53.592;10.184;2022-12-07T00:07:24;15.10;;;11.50;;
16015;SDS011;8112;53.592;10.184;2022-12-07T00:12:27;14.00;;;11.50;;
16015;SDS011;8112;53.592;10.184;2022-12-07T00:17:29;17.37;;;13.30;;
16015;SDS011;8112;53.592;10.184;2022-12-07T00:22:30;18.10;;;13.87;;
16015;SDS011;8112;53.592;10.184;2022-12-07T00:27:33;17.70;;;14.27;;
16015;SDS011;8112;53.592;10.184;2022-12-07T00:32:35;18.53;;;13.23;;
16015;SDS011;8112;53.592;10.184;2022-12-07T00:37:37;17.27;;;13.30;;
16015;SDS011;8112;53.592;10.184;2022-12-07T00:42:40;17.17;;;13.43;;
16015;SDS011;8112;53.592;10.184;2022-12-07T00:47:42;18.00;;;14.07;;
16015;SDS011;8112;53.592;10.184;2022-12-07T00:52:43;18.33;;;13.57;;
16015;SDS011;8112;53.592;10.184;2022-12-07T00:57:46;17.27;;;13.77;;
16015;SDS011;8112;53.592;10.184;2022-12-07T01:02:48;16.93;;;13.60;;
16015;SDS011;8112;53.592;10.184;2022-12-07T01:07:50;16.97;;;12.10;;
16015;SDS011;8112;53.592;10.184;2022-12-07T01:12:53;17.00;;;12.30;;
16015;SDS011;8112;53.592;10.184;2022-12-07T01:17:55;16.10;;;12.17;;
16015;SDS011;8112;53.592;10.184;2022-12-07T01:22:56;15.87;;;11.60;;
16015;SDS011;8112;53.592;10.184;2022-12-07T01:27:59;15.47;;;12.47;;
16015;SDS011;8112;53.592;10.184;2022-12-07T01:33:01;15.47;;;10.63;;
16015;SDS011;8112;53.592;10.184;2022-12-07T01:38:03;13.07;;;11.37;;
16015;SDS011;8112;53.592;10.184;2022-12-07T01:43:09;13.93;;;10.70;;
16015;SDS011;8112;53.592;10.184;2022-12-07T01:48:18;12.73;;;10.37;;
16015;SDS011;8112;53.592;10.184;2022-12-07T01:53:24;15.07;;;11.10;;
16015;SDS011;8112;53.592;10.184;2022-12-07T01:58:30;14.23;;;9.83;;
16015;SDS011;8112;53.592;10.184;2022-12-07T02:03:32;14.47;;;11.20;;
16015;SDS011;8112;53.592;10.184;2022-12-07T02:08:39;14.33;;;10.67;;
16015;SDS011;8112;53.592;10.184;2022-12-07T02:13:44;15.30;;;10.60;;
16015;SDS011;8112;53.592;10.184;2022-12-07T02:18:54;14.50;;;10.77;;
16015;SDS011;8112;53.592;10.184;2022-12-07T02:24:06;17.53;;;10.77;;
16015;SDS011;8112;53.592;10.184;2022-12-07T02:29:23;12.67;;;10.13;;
16015;SDS011;8112;53.592;10.184;2022-12-07T02:34:28;11.77;;;9.40;;
16015;SDS011;8112;53.592;10.184;2022-12-07T02:39:37;10.57;;;8.20;;
16015;SDS011;8112;53.592;10.184;2022-12-07T02:44:45;11.47;;;8.07;;
16015;SDS011;8112;53.592;10.184;2022-12-07T02:49:48;10.33;;;6.47;;
16015;SDS011;8112;53.592;10.184;2022-12-07T02:54:51;9.47;;;6.30;;
16015;SDS011;8112;53.592;10.184;2022-12-07T02:59:59;6.77;;;5.17;;
16015;SDS011;8112;53.592;10.184;2022-12-07T03:05:08;7.13;;;5.20;;
16015;SDS011;8112;53.592;10.184;2022-12-07T03:10:23;8.27;;;4.83;;
16015;SDS011;8112;53.592;10.184;2022-12-07T03:15:31;8.63;;;4.53;;
16015;SDS011;8112;53.592;10.184;2022-12-07T03:20:37;7.50;;;4.73;;
16015;SDS011;8112;53.592;10.184;2022-12-07T03:25:43;5.07;;;3.73;;
16015;SDS011;8112;53.592;10.184;2022-12-07T03:35:58;3.83;;;3.40;;
16015;SDS011;8112;53.592;10.184;2022-12-07T03:41:06;4.43;;;3.63;;
16015;SDS011;8112;53.592;10.184;2022-12-07T03:46:17;8.27;;;3.50;;
16015;SDS011;8112;53.592;10.184;2022-12-07T03:51:24;3.60;;;2.90;;
16015;SDS011;8112;53.592;10.184;2022-12-07T03:56:29;6.77;;;3.60;;
16015;SDS011;8112;53.592;10.184;2022-12-07T04:01:33;2.83;;;2.50;;
16015;SDS011;8112;53.592;10.184;2022-12-07T04:06:35;3.85;;;2.45;;
16015;SDS011;8112;53.592;10.184;2022-12-07T04:11:37;4.00;;;2.47;;
16015;SDS011;8112;53.592;10.184;2022-12-07T04:16:40;4.33;;;2.70;;
16015;SDS011;8112;53.592;10.184;2022-12-07T04:21:41;2.70;;;2.40;;
16015;SDS011;8112;53.592;10.184;2022-12-07T04:26:44;2.57;;;2.30;;
16015;SDS011;8112;53.592;10.184;2022-12-07T04:31:48;2.97;;;2.43;;
16015;SDS011;8112;53.592;10.184;2022-12-07T04:36:50;4.53;;;2.83;;
16015;SDS011;8112;53.592;10.184;2022-12-07T04:41:52;4.63;;;2.50;;
16015;SDS011;8112;53.592;10.184;2022-12-07T04:46:55;6.17;;;2.73;;
16015;SDS011;8112;53.592;10.184;2022-12-07T04:51:58;4.67;;;2.90;;
16015;SDS011;8112;53.592;10.184;2022-12-07T04:56:59;4.20;;;3.00;;
16015;SDS011;8112;53.592;10.184;2022-12-07T05:02:02;3.70;;;2.60;;
16015;SDS011;8112;53.592;10.184;2022-12-07T05:07:04;6.63;;;3.50;;
16015;SDS011;8112;53.592;10.184;2022-12-07T05:12:06;4.63;;;3.07;;
16015;SDS011;8112;53.592;10.184;2022-12-07T05:17:09;3.67;;;3.00;;
16015;SDS011;8112;53.592;10.184;2022-12-07T05:22:11;3.77;;;2.83;;
16015;SDS011;8112;53.592;10.184;2022-12-07T05:27:14;4.90;;;3.43;;
16015;SDS011;8112;53.592;10.184;2022-12-07T05:32:17;5.23;;;3.13;;
16015;SDS011;8112;53.592;10.184;2022-12-07T05:37:19;4.20;;;2.80;;
16015;SDS011;8112;53.592;10.184;2022-12-07T05:42:20;4.37;;;3.33;;
16015;SDS011;8112;53.592;10.184;2022-12-07T05:47:23;5.50;;;3.43;;
16015;SDS011;8112;53.592;10.184;2022-12-07T05:52:25;5.33;;;3.60;;
16015;SDS011;8112;53.592;10.184;2022-12-07T05:57:27;6.27;;;3.70;;
16015;SDS011;8112;53.592;10.184;2022-12-07T06:02:30;6.07;;;4.40;;
16015;SDS011;8112;53.592;10.184;2022-12-07T06:07:32;5.03;;;3.97;;
16015;SDS011;8112;53.592;10.184;2022-12-07T06:12:34;6.00;;;4.00;;
16015;SDS011;8112;53.592;10.184;2022-12-07T06:17:37;4.83;;;4.03;;
16015;SDS011;8112;53.592;10.184;2022-12-07T06:22:38;5.03;;;4.47;;
16015;SDS011;8112;53.592;10.184;2022-12-07T06:27:40;5.20;;;4.20;;
16015;SDS011;8112;53.592;10.184;2022-12-07T06:32:43;5.47;;;4.43;;
16015;SDS011;8112;53.592;10.184;2022-12-07T06:37:45;6.03;;;4.50;;
16015;SDS011;8112;53.592;10.184;2022-12-07T06:42:47;6.17;;;4.60;;
16015;SDS011;8112;53.592;10.184;2022-12-07T06:47:50;4.87;;;4.37;;
16015;SDS011;8112;53.592;10.184;2022-12-07T06:52:52;6.17;;;4.53;;
16015;SDS011;8112;53.592;10.184;2022-12-07T06:57:54;4.60;;;4.20;;
16015;SDS011;8112;53.592;10.184;2022-12-07T07:02:57;6.10;;;4.13;;
16015;SDS011;8112;53.592;10.184;2022-12-07T07:07:58;5.57;;;4.63;;
16015;SDS011;8112;53.592;10.184;2022-12-07T07:13:00;6.57;;;4.63;;
16015;SDS011;8112;53.592;10.184;2022-12-07T07:18:04;5.10;;;4.07;;
16015;SDS011;8112;53.592;10.184;2022-12-07T07:23:05;6.10;;;4.13;;
16015;SDS011;8112;53.592;10.184;2022-12-07T07:28:07;9.03;;;4.20;;
16015;SDS011;8112;53.592;10.184;2022-12-07T07:33:10;6.03;;;3.57;;
16015;SDS011;8112;53.592;10.184;2022-12-07T07:38:12;4.60;;;3.47;;
16015;SDS011;8112;53.592;10.184;2022-12-07T07:43:14;4.37;;;2.90;;
16015;SDS011;8112;53.592;10.184;2022-12-07T07:48:17;5.27;;;3.00;;
16015;SDS011;8112;53.592;10.184;2022-12-07T07:53:19;3.93;;;2.80;;
16015;SDS011;8112;53.592;10.184;2022-12-07T07:58:21;5.40;;;2.63;;
16015;SDS011;8112;53.592;10.184;2022-12-07T08:03:24;6.23;;;2.77;;
16015;SDS011;8112;53.592;10.184;2022-12-07T08:08:26;2.80;;;2.20;;
16015;SDS011;8112;53.592;10.184;2022-12-07T08:13:28;2.93;;;2.20;;
16015;SDS011;8112;53.592;10.184;2022-12-07T08:18:31;3.67;;;2.40;;
16015;SDS011;8112;53.592;10.184;2022-12-07T08:23:36;3.60;;;2.13;;
16015;SDS011;8112;53.592;10.184;2022-12-07T08:28:38;4.90;;;2.47;;
16015;SDS011;8112;53.592;10.184;2022-12-07T08:33:41;7.23;;;3.10;;
16015;SDS011;8112;53.592;10.184;2022-12-07T08:38:43;4.47;;;2.50;;
16015;SDS011;8112;53.592;10.184;2022-12-07T08:43:45;6.27;;;2.80;;
16015;SDS011;8112;53.592;10.184;2022-12-07T08:48:50;7.03;;;2.60;;
16015;SDS011;8112;53.592;10.184;2022-12-07T08:53:57;3.70;;;2.03;;
16015;SDS011;8112;53.592;10.184;2022-12-07T08:59:01;3.70;;;1.97;;
16015;SDS011;8112;53.592;10.184;2022-12-07T09:04:05;4.70;;;2.30;;
16015;SDS011;8112;53.592;10.184;2022-12-07T09:09:07;5.13;;;2.00;;
16015;SDS011;8112;53.592;10.184;2022-12-07T09:14:10;5.57;;;2.60;;
16015;SDS011;8112;53.592;10.184;2022-12-07T09:19:14;5.80;;;2.47;;
16015;SDS011;8112;53.592;10.184;2022-12-07T09:24:15;4.73;;;2.17;;
16015;SDS011;8112;53.592;10.184;2022-12-07T09:29:17;4.10;;;2.40;;
16015;SDS011;8112;53.592;10.184;2022-12-07T09:34:20;4.27;;;1.83;;
16015;SDS011;8112;53.592;10.184;2022-12-07T09:39:22;6.40;;;2.20;;
16015;SDS011;8112;53.592;10.184;2022-12-07T09:44:24;6.07;;;1.97;;
16015;SDS011;8112;53.592;10.184;2022-12-07T09:49:29;4.43;;;1.97;;
16015;SDS011;8112;53.592;10.184;2022-12-07T09:54:33;4.33;;;1.80;;
16015;SDS011;8112;53.592;10.184;2022-12-07T09:59:37;6.77;;;2.20;;
16015;SDS011;8112;53.592;10.184;2022-12-07T10:04:41;4.40;;;2.10;;
16015;SDS011;8112;53.592;10.184;2022-12-07T10:09:45;6.17;;;2.10;;
16015;SDS011;8112;53.592;10.184;2022-12-07T10:14:54;4.67;;;1.77;;
16015;SDS011;8112;53.592;10.184;2022-12-07T10:20:15;3.80;;;1.83;;
16015;SDS011;8112;53.592;10.184;2022-12-07T10:25:20;4.13;;;2.07;;
16015;SDS011;8112;53.592;10.184;2022-12-07T10:30:23;4.67;;;1.70;;
16015;SDS011;8112;53.592;10.184;2022-12-07T10:35:30;5.43;;;1.90;;
16015;SDS011;8112;53.592;10.184;2022-12-07T10:40:33;4.80;;;1.70;;
16015;SDS011;8112;53.592;10.184;2022-12-07T10:45:37;3.77;;;2.00;;
16015;SDS011;8112;53.592;10.184;2022-12-07T10:51:02;4.23;;;1.90;;
16015;SDS011;8112;53.592;10.184;2022-12-07T10:56:32;5.77;;;1.70;;
16015;SDS011;8112;53.592;10.184;2022-12-07T11:01:53;3.43;;;1.70;;
16015;SDS011;8112;53.592;10.184;2022-12-07T11:07:00;5.50;;;1.97;;
16015;SDS011;8112;53.592;10.184;2022-12-07T11:12:10;3.50;;;1.53;;
16015;SDS011;8112;53.592;10.184;2022-12-07T11:17:18;3.23;;;1.63;;
16015;SDS011;8112;53.592;10.184;2022-12-07T11:22:29;3.10;;;1.50;;
16015;SDS011;8112;53.592;10.184;2022-12-07T11:27:44;5.87;;;1.70;;
16015;SDS011;8112;53.592;10.184;2022-12-07T11:33:01;6.10;;;1.80;;
16015;SDS011;8112;53.592;10.184;2022-12-07T11:38:11;3.17;;;1.57;;
16015;SDS011;8112;53.592;10.184;2022-12-07T11:43:19;4.07;;;1.77;;
16015;SDS011;8112;53.592;10.184;2022-12-07T11:48:28;3.90;;;1.50;;
16015;SDS011;8112;53.592;10.184;2022-12-07T11:53:37;4.07;;;1.60;;
16015;SDS011;8112;53.592;10.184;2022-12-07T11:58:47;3.57;;;1.40;;
16015;SDS011;8112;53.592;10.184;2022-12-07T12:03:53;6.07;;;2.47;;
16015;SDS011;8112;53.592;10.184;2022-12-07T12:09:01;6.83;;;2.10;;
16015;SDS011;8112;53.592;10.184;2022-12-07T12:19:40;5.17;;;2.03;;
16015;SDS011;8112;53.592;10.184;2022-12-07T12:24:45;5.17;;;1.70;;
16015;SDS011;8112;53.592;10.184;2022-12-07T12:29:53;6.60;;;1.43;;
16015;SDS011;8112;53.592;10.184;2022-12-07T12:34:58;5.13;;;1.80;;
16015;SDS011;8112;53.592;10.184;2022-12-07T12:51:39;8.27;;;1.93;;
16015;SDS011;8112;53.592;10.184;2022-12-07T12:56:42;4.23;;;1.30;;
16015;SDS011;8112;53.592;10.184;2022-12-07T13:01:53;5.17;;;2.03;;
16015;SDS011;8112;53.592;10.184;2022-12-07T13:06:58;5.53;;;1.60;;
16015;SDS011;8112;53.592;10.184;2022-12-07T13:12:01;3.67;;;1.20;;
16015;SDS011;8112;53.592;10.184;2022-12-07T13:17:07;3.83;;;1.53;;
16015;SDS011;8112;53.592;10.184;2022-12-07T13:27:57;4.27;;;1.27;;
16015;SDS011;8112;53.592;10.184;2022-12-07T13:33:03;4.30;;;1.50;;
16015;SDS011;8112;53.592;10.184;2022-12-07T13:38:05;3.30;;;1.60;;
16015;SDS011;8112;53.592;10.184;2022-12-07T13:43:20;7.50;;;1.50;;
16015;SDS011;8112;53.592;10.184;2022-12-07T13:48:24;3.97;;;1.80;;
16015;SDS011;8112;53.592;10.184;2022-12-07T13:53:32;1.93;;;1.00;;
16015;SDS011;8112;53.592;10.184;2022-12-07T13:58:35;2.03;;;1.33;;
16015;SDS011;8112;53.592;10.184;2022-12-07T14:03:37;4.83;;;1.57;;
16015;SDS011;8112;53.592;10.184;2022-12-07T14:08:38;2.60;;;1.83;;
16015;SDS011;8112;53.592;10.184;2022-12-07T14:13:45;2.67;;;1.37;;
16015;SDS011;8112;53.592;10.184;2022-12-07T14:18:55;2.87;;;1.20;;
16015;SDS011;8112;53.592;10.184;2022-12-07T14:29:31;4.77;;;1.57;;
16015;SDS011;8112;53.592;10.184;2022-12-07T14:34:34;3.07;;;1.23;;
16015;SDS011;8112;53.592;10.184;2022-12-07T14:39:36;6.13;;;1.23;;
16015;SDS011;8112;53.592;10.184;2022-12-07T14:44:39;3.30;;;1.70;;
16015;SDS011;8112;53.592;10.184;2022-12-07T14:49:41;2.63;;;1.20;;
16015;SDS011;8112;53.592;10.184;2022-12-07T14:54:42;2.57;;;1.70;;
16015;SDS011;8112;53.592;10.184;2022-12-07T14:59:46;3.70;;;1.23;;
16015;SDS011;8112;53.592;10.184;2022-12-07T15:04:48;3.07;;;1.20;;
16015;SDS011;8112;53.592;10.184;2022-12-07T15:09:49;1.63;;;1.07;;
16015;SDS011;8112;53.592;10.184;2022-12-07T15:14:52;2.60;;;1.50;;
16015;SDS011;8112;53.592;10.184;2022-12-07T15:19:54;2.20;;;1.50;;
16015;SDS011;8112;53.592;10.184;2022-12-07T15:24:56;3.87;;;1.53;;
16015;SDS011;8112;53.592;10.184;2022-12-07T15:29:59;2.50;;;1.87;;
16015;SDS011;8112;53.592;10.184;2022-12-07T15:35:01;3.43;;;1.77;;
16015;SDS011;8112;53.592;10.184;2022-12-07T15:40:03;3.97;;;1.63;;
16015;SDS011;8112;53.592;10.184;2022-12-07T15:45:07;2.23;;;1.63;;
16015;SDS011;8112;53.592;10.184;2022-12-07T15:50:11;3.43;;;1.57;;
16015;SDS011;8112;53.592;10.184;2022-12-07T15:55:14;3.17;;;1.93;;
16015;SDS011;8112;53.592;10.184;2022-12-07T16:00:18;4.63;;;1.80;;
16015;SDS011;8112;53.592;10.184;2022-12-07T16:05:21;2.90;;;1.80;;
16015;SDS011;8112;53.592;10.184;2022-12-07T16:10:22;2.70;;;1.70;;
16015;SDS011;8112;53.592;10.184;2022-12-07T16:15:26;5.47;;;2.50;;
16015;SDS011;8112;53.592;10.184;2022-12-07T16:20:27;3.67;;;2.40;;
16015;SDS011;8112;53.592;10.184;2022-12-07T16:25:29;2.60;;;2.20;;
16015;SDS011;8112;53.592;10.184;2022-12-07T16:30:32;10.07;;;5.13;;
16015;SDS011;8112;53.592;10.184;2022-12-07T16:35:34;5.00;;;3.53;;
16015;SDS011;8112;53.592;10.184;2022-12-07T16:40:41;4.57;;;2.87;;
16015;SDS011;8112;53.592;10.184;2022-12-07T16:45:44;4.87;;;2.80;;
16015;SDS011;8112;53.592;10.184;2022-12-07T16:50:46;2.87;;;2.30;;
16015;SDS011;8112;53.592;10.184;2022-12-07T16:55:48;5.30;;;2.67;;
16015;SDS011;8112;53.592;10.184;2022-12-07T17:00:52;3.27;;;2.60;;
16015;SDS011;8112;53.592;10.184;2022-12-07T17:05:54;3.67;;;2.70;;
16015;SDS011;8112;53.592;10.184;2022-12-07T17:10:56;4.93;;;2.93;;
16015;SDS011;8112;53.592;10.184;2022-12-07T17:15:59;4.67;;;3.63;;
16015;SDS011;8112;53.592;10.184;2022-12-07T17:21:02;3.67;;;3.07;;
16015;SDS011;8112;53.592;10.184;2022-12-07T17:26:05;3.97;;;2.80;;
16015;SDS011;8112;53.592;10.184;2022-12-07T17:31:10;3.67;;;3.00;;
16015;SDS011;8112;53.592;10.184;2022-12-07T17:36:18;6.70;;;3.63;;
16015;SDS011;8112;53.592;10.184;2022-12-07T17:41:25;5.60;;;3.73;;
16015;SDS011;8112;53.592;10.184;2022-12-07T17:46:47;6.07;;;4.07;;
16015;SDS011;8112;53.592;10.184;2022-12-07T17:51:54;6.00;;;3.90;;
16015;SDS011;8112;53.592;10.184;2022-12-07T17:57:13;7.13;;;4.77;;
16015;SDS011;8112;53.592;10.184;2022-12-07T18:02:17;7.03;;;4.57;;
16015;SDS011;8112;53.592;10.184;2022-12-07T18:07:18;6.37;;;3.83;;
16015;SDS011;8112;53.592;10.184;2022-12-07T18:12:20;7.73;;;4.60;;
16015;SDS011;8112;53.592;10.184;2022-12-07T18:17:23;5.30;;;4.17;;
16015;SDS011;8112;53.592;10.184;2022-12-07T18:22:25;8.37;;;4.63;;
16015;SDS011;8112;53.592;10.184;2022-12-07T18:27:27;5.97;;;4.43;;
16015;SDS011;8112;53.592;10.184;2022-12-07T18:32:30;6.97;;;4.63;;
16015;SDS011;8112;53.592;10.184;2022-12-07T18:37:31;6.23;;;4.63;;
16015;SDS011;8112;53.592;10.184;2022-12-07T18:42:33;6.67;;;4.90;;
16015;SDS011;8112;53.592;10.184;2022-12-07T18:47:36;6.37;;;5.47;;
16015;SDS011;8112;53.592;10.184;2022-12-07T18:52:38;19.73;;;10.50;;
16015;SDS011;8112;53.592;10.184;2022-12-07T18:57:40;11.77;;;6.80;;
16015;SDS011;8112;53.592;10.184;2022-12-07T19:02:43;7.23;;;4.67;;
16015;SDS011;8112;53.592;10.184;2022-12-07T19:07:45;7.30;;;4.97;;
16015;SDS011;8112;53.592;10.184;2022-12-07T19:12:48;7.23;;;5.20;;
16015;SDS011;8112;53.592;10.184;2022-12-07T19:17:51;8.37;;;5.90;;
16015;SDS011;8112;53.592;10.184;2022-12-07T19:22:53;9.40;;;4.60;;
16015;SDS011;8112;53.592;10.184;2022-12-07T19:27:55;15.27;;;7.97;;
16015;SDS011;8112;53.592;10.184;2022-12-07T19:32:58;14.27;;;8.97;;
16015;SDS011;8112;53.592;10.184;2022-12-07T19:37:59;14.07;;;7.70;;
16015;SDS011;8112;53.592;10.184;2022-12-07T19:43:01;11.50;;;5.93;;
16015;SDS011;8112;53.592;10.184;2022-12-07T19:48:04;11.13;;;6.10;;
16015;SDS011;8112;53.592;10.184;2022-12-07T19:53:06;9.40;;;6.13;;
16015;SDS011;8112;53.592;10.184;2022-12-07T19:58:08;9.07;;;6.37;;
16015;SDS011;8112;53.592;10.184;2022-12-07T20:03:11;9.73;;;6.80;;
16015;SDS011;8112;53.592;10.184;2022-12-07T20:08:13;7.73;;;6.10;;
16015;SDS011;8112;53.592;10.184;2022-12-07T20:13:14;10.70;;;6.80;;
16015;SDS011;8112;53.592;10.184;2022-12-07T20:18:31;8.00;;;6.10;;
16015;SDS011;8112;53.592;10.184;2022-12-07T20:23:34;12.57;;;8.03;;
16015;SDS011;8112;53.592;10.184;2022-12-07T20:28:36;12.07;;;8.67;;
16015;SDS011;8112;53.592;10.184;2022-12-07T20:33:39;11.57;;;9.30;;
16015;SDS011;8112;53.592;10.184;2022-12-07T20:38:44;16.60;;;11.30;;
16015;SDS011;8112;53.592;10.184;2022-12-07T20:43:46;15.93;;;11.33;;
16015;SDS011;8112;53.592;10.184;2022-12-07T20:48:50;19.50;;;14.00;;
16015;SDS011;8112;53.592;10.184;2022-12-07T20:53:52;17.23;;;11.77;;
16015;SDS011;8112;53.592;10.184;2022-12-07T20:58:54;17.53;;;11.90;;
16015;SDS011;8112;53.592;10.184;2022-12-07T21:03:57;26.77;;;16.30;;
16015;SDS011;8112;53.592;10.184;2022-12-07T21:09:01;22.60;;;13.93;;
16015;SDS011;8112;53.592;10.184;2022-12-07T21:14:03;17.13;;;10.83;;
16015;SDS011;8112;53.592;10.184;2022-12-07T21:19:06;17.47;;;11.00;;
16015;SDS011;8112;53.592;10.184;2022-12-07T21:24:08;17.43;;;11.10;;
16015;SDS011;8112;53.592;10.184;2022-12-07T21:29:11;12.80;;;8.40;;
16015;SDS011;8112;53.592;10.184;2022-12-07T21:34:15;10.43;;;7.20;;
16015;SDS011;8112;53.592;10.184;2022-12-07T21:39:17;9.57;;;7.73;;
16015;SDS011;8112;53.592;10.184;2022-12-07T21:44:18;16.57;;;10.00;;
16015;SDS011;8112;53.592;10.184;2022-12-07T21:49:22;14.47;;;9.27;;
16015;SDS011;8112;53.592;10.184;2022-12-07T21:54:23;9.93;;;8.07;;
16015;SDS011;8112;53.592;10.184;2022-12-07T21:59:25;11.17;;;7.77;;
16015;SDS011;8112;53.592;10.184;2022-12-07T22:04:28;9.50;;;6.67;;
16015;SDS011;8112;53.592;10.184;2022-12-07T22:09:30;10.63;;;7.67;;
16015;SDS011;8112;53.592;10.184;2022-12-07T22:14:32;9.27;;;7.07;;
16015;SDS011;8112;53.592;10.184;2022-12-07T22:19:53;10.20;;;8.20;;
16015;SDS011;8112;53.592;10.184;2022-12-07T22:24:55;9.33;;;6.90;;
16015;SDS011;8112;53.592;10.184;2022-12-07T22:29:56;10.37;;;7.73;;
16015;SDS011;8112;53.592;10.184;2022-12-07T22:34:59;10.80;;;8.50;;
16015;SDS011;8112;53.592;10.184;2022-12-07T22:40:01;8.97;;;7.63;;
16015;SDS011;8112;53.592;10.184;2022-12-07T22:45:04;8.00;;;7.20;;
16015;SDS011;8112;53.592;10.184;2022-12-07T22:50:08;10.37;;;8.40;;
16015;SDS011;8112;53.592;10.184;2022-12-07T22:55:11;10.77;;;8.00;;
16015;SDS011;8112;53.592;10.184;2022-12-07T23:00:13;11.50;;;8.93;;
16015;SDS011;8112;53.592;10.184;2022-12-07T23:05:16;12.03;;;9.37;;
16015;SDS011;8112;53.592;10.184;2022-12-07T23:10:18;11.67;;;8.77;;
16015;SDS011;8112;53.592;10.184;2022-12-07T23:15:20;11.43;;;9.87;;
16015;SDS011;8112;53.592;10.184;2022-12-07T23:20:23;14.20;;;10.80;;
16015;SDS011;8112;53.592;10.184;2022-12-07T23:25:25;14.73;;;10.53;;
16015;SDS011;8112;53.592;10.184;2022-12-07T23:30:27;14.87;;;11.63;;
16015;SDS011;8112;53.592;10.184;2022-12-07T23:35:30;12.90;;;9.93;;
16015;SDS011;8112;53.592;10.184;2022-12-07T23:40:32;12.87;;;10.50;;
16015;SDS011;8112;53.592;10.184;2022-12-07T23:45:33;14.37;;;10.93;;
16015;SDS011;8112;53.592;10.184;2022-12-07T23:50:37;13.03;;;10.00;;
16015;SDS011;8112;53.592;10.184;2022-12-07T23:55:43;12.27;;;10.10;;
